sensor_id;sensor_type;location;lat;lon;timestamp;temperature;humidity
78793;SHT31;68134;51.984;5.652;2023-05-15T00:02:27;15.1;67.9
78793;SHT31;68134;51.984;5.652;2023-05-15T00:04:55;15.0;67.9
78793;SHT31;68134;51.984;5.652;2023-05-15T00:07:24;15.0;67.9
78793;SHT31;68134;51.984;5.652;2023-05-15T00:09:54;15.0;68.0
78793;SHT31;68134;51.984;5.652;2023-05-15T00:12:23;15.0;67.9
78793;SHT31;68134;51.984;5.652;2023-05-15T00:14:51;15.0;68.0
78793;SHT31;68134;51.984;5.652;2023-05-15T00:17:20;15.0;67.9
78793;SHT31;68134;51.984;5.652;2023-05-15T00:19:48;14.9;67.8
78793;SHT31;68134;51.984;5.652;2023-05-15T00:22:20;14.9;67.7
78793;SHT31;68134;51.984;5.652;2023-05-15T00:24:48;14.9;67.7
78793;SHT31;68134;51.984;5.652;2023-05-15T00:27:17;14.9;67.7
78793;SHT31;68134;51.984;5.652;2023-05-15T00:29:45;14.9;67.7
78793;SHT31;68134;51.984;5.652;2023-05-15T00:32:14;14.9;67.7
78793;SHT31;68134;51.984;5.652;2023-05-15T00:34:42;14.9;67.7
78793;SHT31;68134;51.984;5.652;2023-05-15T00:37:13;14.9;68.0
78793;SHT31;68134;51.984;5.652;2023-05-15T00:39:41;14.9;67.9
78793;SHT31;68134;51.984;5.652;2023-05-15T00:42:12;14.8;67.6
78793;SHT31;68134;51.984;5.652;2023-05-15T00:44:43;14.8;67.9
78793;SHT31;68134;51.984;5.652;2023-05-15T00:47:13;14.8;68.5
78793;SHT31;68134;51.984;5.652;2023-05-15T00:49:45;14.8;68.2
78793;SHT31;68134;51.984;5.652;2023-05-15T00:52:14;14.7;68.6
78793;SHT31;68134;51.984;5.652;2023-05-15T00:54:45;14.7;68.3
78793;SHT31;68134;51.984;5.652;2023-05-15T00:57:15;14.7;68.5
78793;SHT31;68134;51.984;5.652;2023-05-15T00:59:47;14.6;68.2
78793;SHT31;68134;51.984;5.652;2023-05-15T01:02:17;14.6;67.8
78793;SHT31;68134;51.984;5.652;2023-05-15T01:04:48;14.6;67.4
78793;SHT31;68134;51.984;5.652;2023-05-15T01:07:17;14.6;67.6
78793;SHT31;68134;51.984;5.652;2023-05-15T01:09:46;14.5;67.5
78793;SHT31;68134;51.984;5.652;2023-05-15T01:12:17;14.5;67.6
78793;SHT31;68134;51.984;5.652;2023-05-15T01:14:47;14.5;67.7
78793;SHT31;68134;51.984;5.652;2023-05-15T01:17:16;14.4;67.7
78793;SHT31;68134;51.984;5.652;2023-05-15T01:19:49;14.4;67.4
78793;SHT31;68134;51.984;5.652;2023-05-15T01:22:40;14.4;67.3
78793;SHT31;68134;51.984;5.652;2023-05-15T01:25:41;14.3;68.4
78793;SHT31;68134;51.984;5.652;2023-05-15T01:28:14;14.3;68.1
78793;SHT31;68134;51.984;5.652;2023-05-15T01:30:47;14.3;67.7
78793;SHT31;68134;51.984;5.652;2023-05-15T01:33:21;14.2;67.8
78793;SHT31;68134;51.984;5.652;2023-05-15T01:35:58;14.2;67.9
78793;SHT31;68134;51.984;5.652;2023-05-15T01:38:35;14.2;68.3
78793;SHT31;68134;51.984;5.652;2023-05-15T01:41:10;14.1;68.2
78793;SHT31;68134;51.984;5.652;2023-05-15T01:43:44;14.1;68.2
78793;SHT31;68134;51.984;5.652;2023-05-15T01:46:16;14.1;67.8
78793;SHT31;68134;51.984;5.652;2023-05-15T01:48:49;14.1;67.5
78793;SHT31;68134;51.984;5.652;2023-05-15T01:51:19;14.0;67.9
78793;SHT31;68134;51.984;5.652;2023-05-15T01:53:50;14.0;67.8
78793;SHT31;68134;51.984;5.652;2023-05-15T01:56:22;14.0;67.2
78793;SHT31;68134;51.984;5.652;2023-05-15T01:58:52;13.9;67.3
78793;SHT31;68134;51.984;5.652;2023-05-15T02:01:23;13.9;67.3
78793;SHT31;68134;51.984;5.652;2023-05-15T02:03:53;13.9;67.5
78793;SHT31;68134;51.984;5.652;2023-05-15T02:06:23;13.8;67.6
78793;SHT31;68134;51.984;5.652;2023-05-15T02:08:52;13.8;67.8
78793;SHT31;68134;51.984;5.652;2023-05-15T02:11:22;13.8;67.8
78793;SHT31;68134;51.984;5.652;2023-05-15T02:13:53;13.7;67.6
78793;SHT31;68134;51.984;5.652;2023-05-15T02:16:23;13.7;67.8
78793;SHT31;68134;51.984;5.652;2023-05-15T02:18:52;13.7;67.7
78793;SHT31;68134;51.984;5.652;2023-05-15T02:21:21;13.7;67.7
78793;SHT31;68134;51.984;5.652;2023-05-15T02:23:50;13.6;67.8
78793;SHT31;68134;51.984;5.652;2023-05-15T02:26:28;13.6;68.0
78793;SHT31;68134;51.984;5.652;2023-05-15T02:29:05;13.6;68.2
78793;SHT31;68134;51.984;5.652;2023-05-15T02:31:41;13.6;68.4
78793;SHT31;68134;51.984;5.652;2023-05-15T02:34:17;13.5;68.3
78793;SHT31;68134;51.984;5.652;2023-05-15T02:36:51;13.5;68.4
78793;SHT31;68134;51.984;5.652;2023-05-15T02:39:20;13.5;70.0
78793;SHT31;68134;51.984;5.652;2023-05-15T02:41:52;13.5;71.3
78793;SHT31;68134;51.984;5.652;2023-05-15T02:44:22;13.5;71.7
78793;SHT31;68134;51.984;5.652;2023-05-15T02:46:53;13.5;72.3
78793;SHT31;68134;51.984;5.652;2023-05-15T02:49:23;13.5;72.6
78793;SHT31;68134;51.984;5.652;2023-05-15T02:51:53;13.5;73.2
78793;SHT31;68134;51.984;5.652;2023-05-15T02:54:22;13.5;73.4
78793;SHT31;68134;51.984;5.652;2023-05-15T02:56:51;13.6;73.8
78793;SHT31;68134;51.984;5.652;2023-05-15T02:59:19;13.6;74.1
78793;SHT31;68134;51.984;5.652;2023-05-15T03:01:48;13.6;74.4
78793;SHT31;68134;51.984;5.652;2023-05-15T03:04:17;13.6;74.7
78793;SHT31;68134;51.984;5.652;2023-05-15T03:06:45;13.7;74.9
78793;SHT31;68134;51.984;5.652;2023-05-15T03:09:14;13.7;75.1
78793;SHT31;68134;51.984;5.652;2023-05-15T03:11:43;13.7;75.4
78793;SHT31;68134;51.984;5.652;2023-05-15T03:14:11;13.8;75.4
78793;SHT31;68134;51.984;5.652;2023-05-15T03:16:40;13.8;75.4
78793;SHT31;68134;51.984;5.652;2023-05-15T03:19:08;13.8;75.3
78793;SHT31;68134;51.984;5.652;2023-05-15T03:21:37;13.9;75.2
78793;SHT31;68134;51.984;5.652;2023-05-15T03:24:05;13.9;75.0
78793;SHT31;68134;51.984;5.652;2023-05-15T03:26:34;13.9;74.9
78793;SHT31;68134;51.984;5.652;2023-05-15T03:29:03;13.9;74.8
78793;SHT31;68134;51.984;5.652;2023-05-15T03:31:33;13.9;74.4
78793;SHT31;68134;51.984;5.652;2023-05-15T03:34:01;13.9;73.6
78793;SHT31;68134;51.984;5.652;2023-05-15T03:36:30;13.9;73.1
78793;SHT31;68134;51.984;5.652;2023-05-15T03:38:58;13.9;72.9
78793;SHT31;68134;51.984;5.652;2023-05-15T03:41:28;13.9;73.1
78793;SHT31;68134;51.984;5.652;2023-05-15T03:43:57;13.9;73.0
78793;SHT31;68134;51.984;5.652;2023-05-15T03:46:25;13.9;72.9
78793;SHT31;68134;51.984;5.652;2023-05-15T03:48:54;13.8;72.9
78793;SHT31;68134;51.984;5.652;2023-05-15T03:51:23;13.8;73.1
78793;SHT31;68134;51.984;5.652;2023-05-15T03:53:51;13.8;73.1
78793;SHT31;68134;51.984;5.652;2023-05-15T03:56:20;13.8;73.4
78793;SHT31;68134;51.984;5.652;2023-05-15T03:58:48;13.8;73.4
78793;SHT31;68134;51.984;5.652;2023-05-15T04:01:17;13.8;73.2
78793;SHT31;68134;51.984;5.652;2023-05-15T04:03:45;13.8;72.9
78793;SHT31;68134;51.984;5.652;2023-05-15T04:06:14;13.7;72.6
78793;SHT31;68134;51.984;5.652;2023-05-15T04:08:42;13.7;72.5
78793;SHT31;68134;51.984;5.652;2023-05-15T04:11:12;13.7;72.5
78793;SHT31;68134;51.984;5.652;2023-05-15T04:13:40;13.6;72.2
78793;SHT31;68134;51.984;5.652;2023-05-15T04:16:08;13.6;72.3
78793;SHT31;68134;51.984;5.652;2023-05-15T04:18:37;13.6;72.3
78793;SHT31;68134;51.984;5.652;2023-05-15T04:21:05;13.6;73.1
78793;SHT31;68134;51.984;5.652;2023-05-15T04:23:34;13.6;73.5
78793;SHT31;68134;51.984;5.652;2023-05-15T04:26:02;13.6;73.5
78793;SHT31;68134;51.984;5.652;2023-05-15T04:28:31;13.6;73.7
78793;SHT31;68134;51.984;5.652;2023-05-15T04:30:59;13.6;73.7
78793;SHT31;68134;51.984;5.652;2023-05-15T04:33:29;13.6;73.2
78793;SHT31;68134;51.984;5.652;2023-05-15T04:35:58;13.6;72.7
78793;SHT31;68134;51.984;5.652;2023-05-15T04:38:27;13.6;72.8
78793;SHT31;68134;51.984;5.652;2023-05-15T04:40:55;13.6;72.8
78793;SHT31;68134;51.984;5.652;2023-05-15T04:43:24;13.6;72.7
78793;SHT31;68134;51.984;5.652;2023-05-15T04:45:52;13.6;73.0
78793;SHT31;68134;51.984;5.652;2023-05-15T04:48:21;13.6;73.1
78793;SHT31;68134;51.984;5.652;2023-05-15T04:50:49;13.6;72.8
78793;SHT31;68134;51.984;5.652;2023-05-15T04:53:18;13.6;72.7
78793;SHT31;68134;51.984;5.652;2023-05-15T04:55:46;13.6;72.3
78793;SHT31;68134;51.984;5.652;2023-05-15T04:58:16;13.6;72.1
78793;SHT31;68134;51.984;5.652;2023-05-15T05:00:45;13.6;71.2
78793;SHT31;68134;51.984;5.652;2023-05-15T05:03:15;13.6;71.2
78793;SHT31;68134;51.984;5.652;2023-05-15T05:05:43;13.6;71.0
78793;SHT31;68134;51.984;5.652;2023-05-15T05:08:12;13.6;70.6
78793;SHT31;68134;51.984;5.652;2023-05-15T05:10:40;13.6;70.5
78793;SHT31;68134;51.984;5.652;2023-05-15T05:13:09;13.6;70.4
78793;SHT31;68134;51.984;5.652;2023-05-15T05:15:37;13.6;70.9
78793;SHT31;68134;51.984;5.652;2023-05-15T05:18:06;13.6;70.9
78793;SHT31;68134;51.984;5.652;2023-05-15T05:20:36;13.7;70.5
78793;SHT31;68134;51.984;5.652;2023-05-15T05:23:04;13.8;70.6
78793;SHT31;68134;51.984;5.652;2023-05-15T05:25:33;13.8;70.4
78793;SHT31;68134;51.984;5.652;2023-05-15T05:28:01;13.8;70.6
78793;SHT31;68134;51.984;5.652;2023-05-15T05:30:30;13.9;70.8
78793;SHT31;68134;51.984;5.652;2023-05-15T05:32:58;13.9;70.8
78793;SHT31;68134;51.984;5.652;2023-05-15T05:35:27;13.9;70.4
78793;SHT31;68134;51.984;5.652;2023-05-15T05:37:55;14.0;70.6
78793;SHT31;68134;51.984;5.652;2023-05-15T05:40:25;14.0;70.5
78793;SHT31;68134;51.984;5.652;2023-05-15T05:42:53;14.1;70.0
78793;SHT31;68134;51.984;5.652;2023-05-15T05:45:22;14.1;69.3
78793;SHT31;68134;51.984;5.652;2023-05-15T05:47:50;14.1;69.4
78793;SHT31;68134;51.984;5.652;2023-05-15T05:50:19;14.1;68.8
78793;SHT31;68134;51.984;5.652;2023-05-15T05:52:47;14.1;68.4
78793;SHT31;68134;51.984;5.652;2023-05-15T05:55:16;14.2;68.3
78793;SHT31;68134;51.984;5.652;2023-05-15T05:57:44;14.2;68.3
78793;SHT31;68134;51.984;5.652;2023-05-15T06:00:14;14.2;67.9
78793;SHT31;68134;51.984;5.652;2023-05-15T06:02:42;14.2;67.9
78793;SHT31;68134;51.984;5.652;2023-05-15T06:05:11;14.2;68.3
78793;SHT31;68134;51.984;5.652;2023-05-15T06:07:40;14.2;68.2
78793;SHT31;68134;51.984;5.652;2023-05-15T06:10:09;14.4;68.1
78793;SHT31;68134;51.984;5.652;2023-05-15T06:12:38;14.5;67.2
78793;SHT31;68134;51.984;5.652;2023-05-15T06:15:07;14.6;66.7
78793;SHT31;68134;51.984;5.652;2023-05-15T06:17:36;14.7;66.4
78793;SHT31;68134;51.984;5.652;2023-05-15T06:20:05;14.8;65.9
78793;SHT31;68134;51.984;5.652;2023-05-15T06:22:35;14.9;66.3
78793;SHT31;68134;51.984;5.652;2023-05-15T06:25:04;15.1;65.6
78793;SHT31;68134;51.984;5.652;2023-05-15T06:27:33;15.3;64.4
78793;SHT31;68134;51.984;5.652;2023-05-15T06:30:04;15.4;63.9
78793;SHT31;68134;51.984;5.652;2023-05-15T06:32:33;15.5;63.7
78793;SHT31;68134;51.984;5.652;2023-05-15T06:35:02;15.5;64.0
78793;SHT31;68134;51.984;5.652;2023-05-15T06:37:30;15.6;62.8
78793;SHT31;68134;51.984;5.652;2023-05-15T06:39:59;15.7;63.1
78793;SHT31;68134;51.984;5.652;2023-05-15T06:42:27;15.8;63.2
78793;SHT31;68134;51.984;5.652;2023-05-15T06:44:56;15.8;63.3
78793;SHT31;68134;51.984;5.652;2023-05-15T06:47:25;15.9;62.7
78793;SHT31;68134;51.984;5.652;2023-05-15T06:49:54;15.9;62.1
78793;SHT31;68134;51.984;5.652;2023-05-15T06:52:22;16.0;61.7
78793;SHT31;68134;51.984;5.652;2023-05-15T06:54:51;16.0;61.3
78793;SHT31;68134;51.984;5.652;2023-05-15T06:57:19;16.1;61.7
78793;SHT31;68134;51.984;5.652;2023-05-15T06:59:48;16.2;61.3
78793;SHT31;68134;51.984;5.652;2023-05-15T07:02:16;16.4;61.3
78793;SHT31;68134;51.984;5.652;2023-05-15T07:04:45;16.6;60.3
78793;SHT31;68134;51.984;5.652;2023-05-15T07:07:13;16.9;59.5
78793;SHT31;68134;51.984;5.652;2023-05-15T07:09:42;17.2;58.4
78793;SHT31;68134;51.984;5.652;2023-05-15T07:12:13;17.5;57.7
78793;SHT31;68134;51.984;5.652;2023-05-15T07:14:41;17.8;56.1
78793;SHT31;68134;51.984;5.652;2023-05-15T07:17:10;17.9;54.7
78793;SHT31;68134;51.984;5.652;2023-05-15T07:19:39;18.0;55.2
78793;SHT31;68134;51.984;5.652;2023-05-15T07:22:07;18.2;55.4
78793;SHT31;68134;51.984;5.652;2023-05-15T07:24:35;18.3;55.0
78793;SHT31;68134;51.984;5.652;2023-05-15T07:27:05;18.4;55.3
78793;SHT31;68134;51.984;5.652;2023-05-15T07:29:33;18.5;55.0
78793;SHT31;68134;51.984;5.652;2023-05-15T07:32:02;18.7;54.3
78793;SHT31;68134;51.984;5.652;2023-05-15T07:34:31;18.9;53.8
78793;SHT31;68134;51.984;5.652;2023-05-15T07:36:59;19.0;53.7
78793;SHT31;68134;51.984;5.652;2023-05-15T07:39:28;19.1;53.2
78793;SHT31;68134;51.984;5.652;2023-05-15T07:41:56;19.2;53.2
78793;SHT31;68134;51.984;5.652;2023-05-15T07:44:25;19.3;54.0
78793;SHT31;68134;51.984;5.652;2023-05-15T07:46:54;19.6;53.7
78793;SHT31;68134;51.984;5.652;2023-05-15T07:49:23;19.9;51.0
78793;SHT31;68134;51.984;5.652;2023-05-15T07:51:51;20.0;50.8
78793;SHT31;68134;51.984;5.652;2023-05-15T07:54:20;20.1;49.6
78793;SHT31;68134;51.984;5.652;2023-05-15T07:56:48;20.2;49.0
78793;SHT31;68134;51.984;5.652;2023-05-15T07:59:17;20.2;50.4
78793;SHT31;68134;51.984;5.652;2023-05-15T08:01:46;20.3;50.7
78793;SHT31;68134;51.984;5.652;2023-05-15T08:04:15;20.5;49.9
78793;SHT31;68134;51.984;5.652;2023-05-15T08:06:45;20.7;48.8
78793;SHT31;68134;51.984;5.652;2023-05-15T08:09:13;20.8;48.9
78793;SHT31;68134;51.984;5.652;2023-05-15T08:11:42;21.0;48.0
78793;SHT31;68134;51.984;5.652;2023-05-15T08:14:11;21.1;48.2
78793;SHT31;68134;51.984;5.652;2023-05-15T08:16:39;21.3;47.9
78793;SHT31;68134;51.984;5.652;2023-05-15T08:19:08;21.6;45.1
78793;SHT31;68134;51.984;5.652;2023-05-15T08:21:38;21.8;47.3
78793;SHT31;68134;51.984;5.652;2023-05-15T08:24:07;22.0;45.7
78793;SHT31;68134;51.984;5.652;2023-05-15T08:26:37;22.2;45.8
78793;SHT31;68134;51.984;5.652;2023-05-15T08:29:06;22.4;45.6
78793;SHT31;68134;51.984;5.652;2023-05-15T08:31:34;22.7;45.3
78793;SHT31;68134;51.984;5.652;2023-05-15T08:34:03;22.9;43.8
78793;SHT31;68134;51.984;5.652;2023-05-15T08:36:31;23.1;42.7
78793;SHT31;68134;51.984;5.652;2023-05-15T08:39:00;23.2;43.0
78793;SHT31;68134;51.984;5.652;2023-05-15T08:41:32;23.4;42.0
78793;SHT31;68134;51.984;5.652;2023-05-15T08:44:07;23.5;41.8
78793;SHT31;68134;51.984;5.652;2023-05-15T08:46:36;23.6;42.4
78793;SHT31;68134;51.984;5.652;2023-05-15T08:49:11;23.7;43.0
78793;SHT31;68134;51.984;5.652;2023-05-15T08:51:42;23.9;42.7
78793;SHT31;68134;51.984;5.652;2023-05-15T08:54:11;24.1;42.9
78793;SHT31;68134;51.984;5.652;2023-05-15T08:56:40;24.2;41.1
78793;SHT31;68134;51.984;5.652;2023-05-15T08:59:09;24.3;40.6
78793;SHT31;68134;51.984;5.652;2023-05-15T09:01:37;24.2;40.5
78793;SHT31;68134;51.984;5.652;2023-05-15T09:04:06;24.1;40.2
78793;SHT31;68134;51.984;5.652;2023-05-15T09:06:35;24.0;39.9
78793;SHT31;68134;51.984;5.652;2023-05-15T09:09:05;23.8;40.2
78793;SHT31;68134;51.984;5.652;2023-05-15T09:11:34;23.7;41.6
78793;SHT31;68134;51.984;5.652;2023-05-15T09:14:03;23.6;41.7
78793;SHT31;68134;51.984;5.652;2023-05-15T09:16:34;23.6;42.3
78793;SHT31;68134;51.984;5.652;2023-05-15T09:19:04;23.6;42.2
78793;SHT31;68134;51.984;5.652;2023-05-15T09:21:33;23.8;42.1
78793;SHT31;68134;51.984;5.652;2023-05-15T09:24:18;23.8;41.0
78793;SHT31;68134;51.984;5.652;2023-05-15T09:27:02;23.9;41.7
78793;SHT31;68134;51.984;5.652;2023-05-15T09:29:33;23.9;41.4
78793;SHT31;68134;51.984;5.652;2023-05-15T09:32:07;23.9;40.4
78793;SHT31;68134;51.984;5.652;2023-05-15T09:34:37;23.9;41.9
78793;SHT31;68134;51.984;5.652;2023-05-15T09:37:08;23.8;41.0
78793;SHT31;68134;51.984;5.652;2023-05-15T09:39:41;23.7;42.7
78793;SHT31;68134;51.984;5.652;2023-05-15T09:42:12;23.6;42.4
78793;SHT31;68134;51.984;5.652;2023-05-15T09:44:42;23.5;43.0
78793;SHT31;68134;51.984;5.652;2023-05-15T09:47:12;23.4;43.6
78793;SHT31;68134;51.984;5.652;2023-05-15T09:49:44;23.3;43.1
78793;SHT31;68134;51.984;5.652;2023-05-15T09:52:15;23.2;44.3
78793;SHT31;68134;51.984;5.652;2023-05-15T09:54:45;23.2;44.1
78793;SHT31;68134;51.984;5.652;2023-05-15T09:57:14;23.2;45.0
78793;SHT31;68134;51.984;5.652;2023-05-15T09:59:45;23.1;44.7
78793;SHT31;68134;51.984;5.652;2023-05-15T10:02:24;23.0;44.1
78793;SHT31;68134;51.984;5.652;2023-05-15T10:04:57;23.0;44.2
78793;SHT31;68134;51.984;5.652;2023-05-15T10:07:30;23.0;43.7
78793;SHT31;68134;51.984;5.652;2023-05-15T10:10:00;22.9;43.6
78793;SHT31;68134;51.984;5.652;2023-05-15T10:12:30;22.7;43.7
78793;SHT31;68134;51.984;5.652;2023-05-15T10:15:01;22.6;44.9
78793;SHT31;68134;51.984;5.652;2023-05-15T10:17:30;22.5;45.5
78793;SHT31;68134;51.984;5.652;2023-05-15T10:20:02;22.3;45.0
78793;SHT31;68134;51.984;5.652;2023-05-15T10:22:36;22.2;46.7
78793;SHT31;68134;51.984;5.652;2023-05-15T10:25:12;22.1;48.1
78793;SHT31;68134;51.984;5.652;2023-05-15T10:27:47;22.1;46.9
78793;SHT31;68134;51.984;5.652;2023-05-15T10:30:18;22.0;47.6
78793;SHT31;68134;51.984;5.652;2023-05-15T10:32:48;22.0;47.6
78793;SHT31;68134;51.984;5.652;2023-05-15T10:35:17;21.9;46.0
78793;SHT31;68134;51.984;5.652;2023-05-15T10:37:47;21.9;45.7
78793;SHT31;68134;51.984;5.652;2023-05-15T10:40:16;21.9;45.9
78793;SHT31;68134;51.984;5.652;2023-05-15T10:42:46;21.9;45.1
78793;SHT31;68134;51.984;5.652;2023-05-15T10:45:17;21.9;45.0
78793;SHT31;68134;51.984;5.652;2023-05-15T10:47:46;21.9;45.1
78793;SHT31;68134;51.984;5.652;2023-05-15T10:50:15;21.9;45.9
78793;SHT31;68134;51.984;5.652;2023-05-15T10:52:43;21.9;45.3
78793;SHT31;68134;51.984;5.652;2023-05-15T10:55:16;21.9;45.0
78793;SHT31;68134;51.984;5.652;2023-05-15T10:57:46;21.9;45.9
78793;SHT31;68134;51.984;5.652;2023-05-15T11:00:32;21.9;45.0
78793;SHT31;68134;51.984;5.652;2023-05-15T11:03:04;21.9;47.0
78793;SHT31;68134;51.984;5.652;2023-05-15T11:06:07;21.9;47.7
78793;SHT31;68134;51.984;5.652;2023-05-15T11:08:38;21.9;47.8
78793;SHT31;68134;51.984;5.652;2023-05-15T11:11:06;21.9;47.5
78793;SHT31;68134;51.984;5.652;2023-05-15T11:16:57;21.8;47.6
78793;SHT31;68134;51.984;5.652;2023-05-15T11:19:31;21.7;48.6
78793;SHT31;68134;51.984;5.652;2023-05-15T11:22:02;21.7;48.7
78793;SHT31;68134;51.984;5.652;2023-05-15T11:24:34;21.6;48.5
78793;SHT31;68134;51.984;5.652;2023-05-15T11:27:06;21.5;48.8
78793;SHT31;68134;51.984;5.652;2023-05-15T11:29:34;21.5;49.2
78793;SHT31;68134;51.984;5.652;2023-05-15T11:32:05;21.5;50.2
78793;SHT31;68134;51.984;5.652;2023-05-15T11:34:40;21.4;49.8
78793;SHT31;68134;51.984;5.652;2023-05-15T11:37:17;21.4;49.7
78793;SHT31;68134;51.984;5.652;2023-05-15T11:39:46;21.4;49.7
78793;SHT31;68134;51.984;5.652;2023-05-15T11:42:16;21.3;49.9
78793;SHT31;68134;51.984;5.652;2023-05-15T11:44:47;21.3;49.9
78793;SHT31;68134;51.984;5.652;2023-05-15T11:47:18;21.3;50.2
78793;SHT31;68134;51.984;5.652;2023-05-15T11:49:48;21.3;49.8
78793;SHT31;68134;51.984;5.652;2023-05-15T11:52:17;21.2;49.9
78793;SHT31;68134;51.984;5.652;2023-05-15T11:54:46;21.2;49.9
78793;SHT31;68134;51.984;5.652;2023-05-15T11:57:14;21.1;49.3
78793;SHT31;68134;51.984;5.652;2023-05-15T11:59:43;21.1;50.5
78793;SHT31;68134;51.984;5.652;2023-05-15T12:02:11;21.1;48.7
78793;SHT31;68134;51.984;5.652;2023-05-15T12:04:42;21.0;48.8
78793;SHT31;68134;51.984;5.652;2023-05-15T12:07:10;21.0;49.9
78793;SHT31;68134;51.984;5.652;2023-05-15T12:09:39;21.0;49.5
78793;SHT31;68134;51.984;5.652;2023-05-15T12:12:12;20.9;49.5
78793;SHT31;68134;51.984;5.652;2023-05-15T12:14:41;20.9;49.3
78793;SHT31;68134;51.984;5.652;2023-05-15T12:17:10;20.8;50.5
78793;SHT31;68134;51.984;5.652;2023-05-15T12:19:40;20.7;50.6
78793;SHT31;68134;51.984;5.652;2023-05-15T12:22:12;20.7;50.0
78793;SHT31;68134;51.984;5.652;2023-05-15T12:24:41;20.7;50.4
78793;SHT31;68134;51.984;5.652;2023-05-15T12:27:14;20.6;50.6
78793;SHT31;68134;51.984;5.652;2023-05-15T12:29:43;20.6;50.5
78793;SHT31;68134;51.984;5.652;2023-05-15T12:32:14;20.5;51.2
78793;SHT31;68134;51.984;5.652;2023-05-15T12:34:43;20.5;50.9
78793;SHT31;68134;51.984;5.652;2023-05-15T12:37:13;20.5;51.0
78793;SHT31;68134;51.984;5.652;2023-05-15T12:39:50;20.5;51.1
78793;SHT31;68134;51.984;5.652;2023-05-15T12:42:19;20.4;50.7
78793;SHT31;68134;51.984;5.652;2023-05-15T12:44:51;20.4;51.8
78793;SHT31;68134;51.984;5.652;2023-05-15T12:47:26;20.4;52.1
78793;SHT31;68134;51.984;5.652;2023-05-15T12:49:58;20.5;52.9
78793;SHT31;68134;51.984;5.652;2023-05-15T12:52:30;20.6;51.9
78793;SHT31;68134;51.984;5.652;2023-05-15T12:55:00;20.6;51.2
78793;SHT31;68134;51.984;5.652;2023-05-15T12:57:31;20.7;51.2
78793;SHT31;68134;51.984;5.652;2023-05-15T13:00:01;20.7;51.1
78793;SHT31;68134;51.984;5.652;2023-05-15T13:02:30;20.8;51.6
78793;SHT31;68134;51.984;5.652;2023-05-15T13:05:00;21.0;51.9
78793;SHT31;68134;51.984;5.652;2023-05-15T13:07:30;21.3;52.9
78793;SHT31;68134;51.984;5.652;2023-05-15T13:10:07;21.7;49.8
78793;SHT31;68134;51.984;5.652;2023-05-15T13:12:36;22.1;48.7
78793;SHT31;68134;51.984;5.652;2023-05-15T13:15:06;22.4;48.0
78793;SHT31;68134;51.984;5.652;2023-05-15T13:17:36;22.8;48.0
78793;SHT31;68134;51.984;5.652;2023-05-15T13:20:10;23.1;46.2
78793;SHT31;68134;51.984;5.652;2023-05-15T13:22:39;23.3;46.3
78793;SHT31;68134;51.984;5.652;2023-05-15T13:25:08;23.4;44.6
78793;SHT31;68134;51.984;5.652;2023-05-15T13:27:36;23.4;45.4
78793;SHT31;68134;51.984;5.652;2023-05-15T13:30:06;23.5;45.8
78793;SHT31;68134;51.984;5.652;2023-05-15T13:32:36;23.5;45.5
78793;SHT31;68134;51.984;5.652;2023-05-15T13:35:05;23.6;44.3
78793;SHT31;68134;51.984;5.652;2023-05-15T13:37:35;23.6;45.0
78793;SHT31;68134;51.984;5.652;2023-05-15T13:40:07;23.6;44.2
78793;SHT31;68134;51.984;5.652;2023-05-15T13:42:37;23.6;43.9
78793;SHT31;68134;51.984;5.652;2023-05-15T13:45:10;23.5;44.1
78793;SHT31;68134;51.984;5.652;2023-05-15T13:47:39;23.4;44.7
78793;SHT31;68134;51.984;5.652;2023-05-15T13:50:09;23.3;44.4
78793;SHT31;68134;51.984;5.652;2023-05-15T13:52:39;23.2;44.9
78793;SHT31;68134;51.984;5.652;2023-05-15T13:55:09;23.0;44.9
78793;SHT31;68134;51.984;5.652;2023-05-15T13:57:39;22.9;44.3
78793;SHT31;68134;51.984;5.652;2023-05-15T14:00:09;22.8;44.2
78793;SHT31;68134;51.984;5.652;2023-05-15T14:02:39;22.7;45.4
78793;SHT31;68134;51.984;5.652;2023-05-15T14:05:09;22.7;45.2
78793;SHT31;68134;51.984;5.652;2023-05-15T14:07:39;22.6;46.5
78793;SHT31;68134;51.984;5.652;2023-05-15T14:10:10;22.6;45.6
78793;SHT31;68134;51.984;5.652;2023-05-15T14:12:39;22.6;47.3
78793;SHT31;68134;51.984;5.652;2023-05-15T14:15:11;22.6;47.8
78793;SHT31;68134;51.984;5.652;2023-05-15T14:17:40;22.6;47.2
78793;SHT31;68134;51.984;5.652;2023-05-15T14:20:10;22.5;48.5
78793;SHT31;68134;51.984;5.652;2023-05-15T14:22:39;22.5;48.7
78793;SHT31;68134;51.984;5.652;2023-05-15T14:25:09;22.5;48.3
78793;SHT31;68134;51.984;5.652;2023-05-15T14:27:37;22.5;48.2
78793;SHT31;68134;51.984;5.652;2023-05-15T14:30:07;22.4;48.4
78793;SHT31;68134;51.984;5.652;2023-05-15T14:32:36;22.4;48.3
78793;SHT31;68134;51.984;5.652;2023-05-15T14:35:07;22.3;47.7
78793;SHT31;68134;51.984;5.652;2023-05-15T14:37:35;22.2;48.2
78793;SHT31;68134;51.984;5.652;2023-05-15T14:40:05;22.1;47.9
78793;SHT31;68134;51.984;5.652;2023-05-15T14:42:34;22.0;48.1
78793;SHT31;68134;51.984;5.652;2023-05-15T14:45:02;21.9;47.8
78793;SHT31;68134;51.984;5.652;2023-05-15T14:47:31;21.7;48.2
78793;SHT31;68134;51.984;5.652;2023-05-15T14:50:00;21.6;48.7
78793;SHT31;68134;51.984;5.652;2023-05-15T14:52:28;21.4;48.3
78793;SHT31;68134;51.984;5.652;2023-05-15T14:54:57;21.3;49.3
78793;SHT31;68134;51.984;5.652;2023-05-15T14:57:26;21.2;49.4
78793;SHT31;68134;51.984;5.652;2023-05-15T14:59:56;21.1;50.1
78793;SHT31;68134;51.984;5.652;2023-05-15T15:02:24;21.0;50.1
78793;SHT31;68134;51.984;5.652;2023-05-15T15:04:53;20.9;50.7
78793;SHT31;68134;51.984;5.652;2023-05-15T15:07:21;20.9;50.7
78793;SHT31;68134;51.984;5.652;2023-05-15T15:09:49;20.8;50.7
78793;SHT31;68134;51.984;5.652;2023-05-15T15:12:18;20.8;50.5
78793;SHT31;68134;51.984;5.652;2023-05-15T15:14:46;20.7;51.1
78793;SHT31;68134;51.984;5.652;2023-05-15T15:17:14;20.7;50.9
78793;SHT31;68134;51.984;5.652;2023-05-15T15:19:43;20.7;50.7
78793;SHT31;68134;51.984;5.652;2023-05-15T15:22:12;20.6;50.6
78793;SHT31;68134;51.984;5.652;2023-05-15T15:24:40;20.6;50.7
78793;SHT31;68134;51.984;5.652;2023-05-15T15:27:11;20.6;50.8
78793;SHT31;68134;51.984;5.652;2023-05-15T15:29:39;20.6;50.5
78793;SHT31;68134;51.984;5.652;2023-05-15T15:32:08;20.6;50.4
78793;SHT31;68134;51.984;5.652;2023-05-15T15:34:36;20.6;50.8
78793;SHT31;68134;51.984;5.652;2023-05-15T15:37:05;20.6;50.3
78793;SHT31;68134;51.984;5.652;2023-05-15T15:39:33;20.5;51.1
78793;SHT31;68134;51.984;5.652;2023-05-15T15:42:02;20.5;50.9
78793;SHT31;68134;51.984;5.652;2023-05-15T15:44:32;20.5;50.3
78793;SHT31;68134;51.984;5.652;2023-05-15T15:47:00;20.4;50.4
78793;SHT31;68134;51.984;5.652;2023-05-15T15:49:29;20.3;50.5
78793;SHT31;68134;51.984;5.652;2023-05-15T15:51:58;20.3;50.8
78793;SHT31;68134;51.984;5.652;2023-05-15T15:54:26;20.2;51.2
78793;SHT31;68134;51.984;5.652;2023-05-15T15:56:55;20.1;51.6
78793;SHT31;68134;51.984;5.652;2023-05-15T15:59:24;20.0;51.6
78793;SHT31;68134;51.984;5.652;2023-05-15T16:01:53;20.0;51.6
78793;SHT31;68134;51.984;5.652;2023-05-15T16:04:21;19.9;52.5
78793;SHT31;68134;51.984;5.652;2023-05-15T16:06:50;19.8;52.0
78793;SHT31;68134;51.984;5.652;2023-05-15T16:09:20;19.8;52.3
78793;SHT31;68134;51.984;5.652;2023-05-15T16:11:49;19.7;51.9
78793;SHT31;68134;51.984;5.652;2023-05-15T16:14:18;19.6;52.3
78793;SHT31;68134;51.984;5.652;2023-05-15T16:16:47;19.6;52.3
78793;SHT31;68134;51.984;5.652;2023-05-15T16:19:16;19.5;52.9
78793;SHT31;68134;51.984;5.652;2023-05-15T16:21:46;19.5;53.0
78793;SHT31;68134;51.984;5.652;2023-05-15T16:24:14;19.4;52.6